createdAt,value
2023-03-15T00:00:12.986Z,1001.30
2023-03-15T00:01:12.947Z,1001.29
2023-03-15T00:02:12.968Z,1001.37
2023-03-15T00:03:13.001Z,1001.33
2023-03-15T00:04:12.921Z,1001.33
2023-03-15T00:05:12.901Z,1001.30
2023-03-15T00:06:12.925Z,1001.33
2023-03-15T00:07:12.883Z,1001.32
2023-03-15T00:08:12.867Z,1001.35
2023-03-15T00:09:12.865Z,1001.38
2023-03-15T00:10:12.882Z,1001.40
2023-03-15T00:11:12.842Z,1001.43
2023-03-15T00:12:12.832Z,1001.45
2023-03-15T00:13:12.818Z,1001.49
2023-03-15T00:14:12.824Z,1001.55
2023-03-15T00:15:12.797Z,1001.51
2023-03-15T00:16:12.869Z,1001.55
2023-03-15T00:17:12.773Z,1001.54
2023-03-15T00:18:12.795Z,1001.61
2023-03-15T00:19:12.757Z,1001.55
2023-03-15T00:20:12.740Z,1001.66
2023-03-15T00:21:12.729Z,1001.66
2023-03-15T00:22:12.725Z,1001.64
2023-03-15T00:23:12.729Z,1001.71
2023-03-15T00:24:12.736Z,1001.69
2023-03-15T00:25:12.700Z,1001.73
2023-03-15T00:26:12.671Z,1001.77
2023-03-15T00:27:12.670Z,1001.80
2023-03-15T00:28:12.659Z,1001.82
2023-03-15T00:29:12.644Z,1001.80
2023-03-15T00:30:12.700Z,1001.83
2023-03-15T00:31:12.657Z,1001.85
2023-03-15T00:32:12.613Z,1001.82
2023-03-15T00:33:12.626Z,1001.93
2023-03-15T00:34:12.584Z,1001.90
2023-03-15T00:35:12.582Z,1001.94
2023-03-15T00:36:12.645Z,1001.94
2023-03-15T00:37:12.581Z,1001.95
2023-03-15T00:38:12.546Z,1001.97
2023-03-15T00:39:12.534Z,1001.96
2023-03-15T00:40:12.543Z,1001.98
2023-03-15T00:41:12.553Z,1001.96
2023-03-15T00:42:12.503Z,1001.94
2023-03-15T00:43:12.519Z,1001.96
2023-03-15T00:44:12.478Z,1001.96
2023-03-15T00:45:12.487Z,1001.99
2023-03-15T00:46:12.626Z,1002.02
2023-03-15T00:47:12.463Z,1002.02
2023-03-15T00:48:12.443Z,1002.06
2023-03-15T00:49:12.433Z,1002.06
2023-03-15T00:50:12.422Z,1002.03
2023-03-15T00:51:12.424Z,1002.11
2023-03-15T00:52:12.456Z,1002.09
2023-03-15T00:53:12.390Z,1002.11
2023-03-15T00:54:12.373Z,1002.19
2023-03-15T00:55:12.372Z,1002.13
2023-03-15T00:56:12.371Z,1002.19
2023-03-15T00:57:12.347Z,1002.14
2023-03-15T00:58:12.364Z,1002.15
2023-03-15T00:59:12.319Z,1002.24
2023-03-15T01:00:12.306Z,1002.17
2023-03-15T01:01:12.318Z,1002.25
2023-03-15T01:02:12.342Z,1002.19
2023-03-15T01:03:12.317Z,1002.22
2023-03-15T01:04:12.301Z,1002.18
2023-03-15T01:05:12.261Z,1002.17
2023-03-15T01:06:12.272Z,1002.23
2023-03-15T01:07:12.267Z,1002.27
2023-03-15T01:08:12.253Z,1002.29
2023-03-15T01:09:12.218Z,1002.23
2023-03-15T01:10:12.204Z,1002.26
2023-03-15T01:11:12.200Z,1002.28
2023-03-15T01:12:12.191Z,1002.28
2023-03-15T01:13:12.199Z,1002.26
2023-03-15T01:14:12.172Z,1002.35
2023-03-15T01:15:12.203Z,1002.31
2023-03-15T01:16:12.201Z,1002.35
2023-03-15T01:17:12.134Z,1002.35
2023-03-15T01:18:12.178Z,1002.41
2023-03-15T01:19:12.108Z,1002.39
2023-03-15T01:20:12.121Z,1002.35
2023-03-15T01:21:12.084Z,1002.44
2023-03-15T01:22:12.078Z,1002.41
2023-03-15T01:23:12.072Z,1002.43
2023-03-15T01:24:12.076Z,1002.49
2023-03-15T01:25:12.048Z,1002.47
2023-03-15T01:26:12.032Z,1002.49
2023-03-15T01:27:12.026Z,1002.47
2023-03-15T01:28:12.003Z,1002.55
2023-03-15T01:29:12.044Z,1002.56
2023-03-15T01:30:11.997Z,1002.51
2023-03-15T01:31:12.046Z,1002.57
2023-03-15T01:32:11.974Z,1002.56
2023-03-15T01:33:11.958Z,1002.54
2023-03-15T01:34:12.086Z,1002.61
2023-03-15T01:35:11.937Z,1002.64
2023-03-15T01:36:11.920Z,1002.64
2023-03-15T01:37:11.922Z,1002.66
2023-03-15T01:38:11.903Z,1002.61
2023-03-15T01:39:12.131Z,1002.67
2023-03-15T01:40:11.879Z,1002.67
2023-03-15T01:41:11.866Z,1002.67
2023-03-15T01:42:11.883Z,1002.69
2023-03-15T01:43:11.852Z,1002.70
2023-03-15T01:44:11.865Z,1002.66
2023-03-15T01:45:11.855Z,1002.65
2023-03-15T01:46:11.817Z,1002.66
2023-03-15T01:47:11.831Z,1002.77
2023-03-15T01:48:11.803Z,1002.72
2023-03-15T01:49:11.793Z,1002.69
2023-03-15T01:50:12.057Z,1002.68
2023-03-15T01:51:11.768Z,1002.76
2023-03-15T01:52:11.754Z,1002.70
2023-03-15T01:53:11.745Z,1002.77
2023-03-15T01:54:11.725Z,1002.67
2023-03-15T01:55:12.063Z,1002.70
2023-03-15T01:56:11.714Z,1002.68
2023-03-15T01:57:12.065Z,1002.68
2023-03-15T01:58:11.691Z,1002.70
2023-03-15T01:59:12.012Z,1002.74
2023-03-15T02:00:11.665Z,1002.73
2023-03-15T02:01:12.040Z,1002.72
2023-03-15T02:02:11.725Z,1002.71
2023-03-15T02:03:11.636Z,1002.73
2023-03-15T02:04:11.630Z,1002.71
2023-03-15T02:05:11.618Z,1002.72
2023-03-15T02:06:11.706Z,1002.73
2023-03-15T02:07:11.592Z,1002.76
2023-03-15T02:08:11.607Z,1002.72
2023-03-15T02:09:11.597Z,1002.72
2023-03-15T02:10:11.569Z,1002.74
2023-03-15T02:11:11.549Z,1002.78
2023-03-15T02:12:11.536Z,1002.76
2023-03-15T02:13:11.526Z,1002.77
2023-03-15T02:14:11.545Z,1002.72
2023-03-15T02:15:11.518Z,1002.76
2023-03-15T02:16:11.524Z,1002.77
2023-03-15T02:17:11.512Z,1002.81
2023-03-15T02:18:11.504Z,1002.85
2023-03-15T02:19:11.469Z,1002.86
2023-03-15T02:20:11.446Z,1002.85
2023-03-15T02:21:11.461Z,1002.92
2023-03-15T02:22:11.506Z,1002.87
2023-03-15T02:23:11.463Z,1002.89
2023-03-15T02:24:11.419Z,1002.85
2023-03-15T02:25:11.401Z,1002.88
2023-03-15T02:26:11.392Z,1002.90
2023-03-15T02:27:11.419Z,1002.88
2023-03-15T02:28:11.371Z,1002.86
2023-03-15T02:29:11.389Z,1002.88
2023-03-15T02:30:11.340Z,1002.94
2023-03-15T02:31:11.334Z,1002.94
2023-03-15T02:32:11.318Z,1003.05
2023-03-15T02:33:11.345Z,1003.06
2023-03-15T02:34:11.317Z,1003.08
2023-03-15T02:35:11.295Z,1003.08
2023-03-15T02:36:11.352Z,1003.07
2023-03-15T02:37:11.263Z,1003.12
2023-03-15T02:38:11.285Z,1003.15
2023-03-15T02:39:11.269Z,1003.11
2023-03-15T02:40:11.232Z,1003.17
2023-03-15T02:41:11.228Z,1003.17
2023-03-15T02:42:11.240Z,1003.19
2023-03-15T02:43:11.204Z,1003.19
2023-03-15T02:44:11.200Z,1003.16
2023-03-15T02:45:11.187Z,1003.21
2023-03-15T02:46:11.296Z,1003.16
2023-03-15T02:47:11.165Z,1003.19
2023-03-15T02:48:11.154Z,1003.24
2023-03-15T02:49:11.197Z,1003.32
2023-03-15T02:50:11.136Z,1003.30
2023-03-15T02:51:11.117Z,1003.30
2023-03-15T02:52:11.109Z,1003.36
2023-03-15T02:53:11.106Z,1003.37
2023-03-15T02:54:11.103Z,1003.38
2023-03-15T02:55:11.116Z,1003.40
2023-03-15T02:56:11.081Z,1003.43
2023-03-15T02:57:11.066Z,1003.39
2023-03-15T02:58:11.048Z,1003.39
2023-03-15T02:59:11.033Z,1003.46
2023-03-15T03:00:11.030Z,1003.45
2023-03-15T03:01:11.091Z,1003.47
2023-03-15T03:02:11.041Z,1003.47
2023-03-15T03:03:11.025Z,1003.52
2023-03-15T03:04:10.989Z,1003.51
2023-03-15T03:05:10.977Z,1003.51
2023-03-15T03:06:10.972Z,1003.53
2023-03-15T03:07:10.951Z,1003.51
2023-03-15T03:08:10.936Z,1003.53
2023-03-15T03:09:10.958Z,1003.51
2023-03-15T03:10:10.937Z,1003.52
2023-03-15T03:11:10.908Z,1003.52
2023-03-15T03:12:10.908Z,1003.56
2023-03-15T03:13:10.920Z,1003.56
2023-03-15T03:14:10.875Z,1003.59
2023-03-15T03:15:10.902Z,1003.55
2023-03-15T03:16:10.858Z,1003.63
2023-03-15T03:17:10.840Z,1003.58
2023-03-15T03:18:10.836Z,1003.60
2023-03-15T03:19:11.021Z,1003.61
2023-03-15T03:20:10.827Z,1003.63
2023-03-15T03:21:10.806Z,1003.65
2023-03-15T03:22:10.785Z,1003.67
2023-03-15T03:23:10.779Z,1003.69
2023-03-15T03:24:10.771Z,1003.67
2023-03-15T03:25:10.780Z,1003.66
2023-03-15T03:26:10.764Z,1003.71
2023-03-15T03:27:10.738Z,1003.75
2023-03-15T03:28:10.779Z,1003.74
2023-03-15T03:29:10.707Z,1003.78
2023-03-15T03:30:10.721Z,1003.81
2023-03-15T03:31:10.755Z,1003.79
2023-03-15T03:32:10.690Z,1003.80
2023-03-15T03:33:10.670Z,1003.80
2023-03-15T03:34:10.660Z,1003.82
2023-03-15T03:35:10.683Z,1003.77
2023-03-15T03:36:10.658Z,1003.76
2023-03-15T03:37:10.623Z,1003.84
2023-03-15T03:38:10.644Z,1003.84
2023-03-15T03:39:10.609Z,1003.85
2023-03-15T03:40:10.595Z,1003.89
2023-03-15T03:41:10.585Z,1003.88
2023-03-15T03:42:10.579Z,1003.87
2023-03-15T03:43:10.636Z,1003.86
2023-03-15T03:44:10.572Z,1003.96
2023-03-15T03:45:10.539Z,1003.89
2023-03-15T03:46:10.651Z,1003.87
2023-03-15T03:47:10.507Z,1003.92
2023-03-15T03:48:10.497Z,1003.93
2023-03-15T03:49:10.497Z,1003.99
2023-03-15T03:50:10.479Z,1003.99
2023-03-15T03:51:10.484Z,1004.02
2023-03-15T03:52:10.485Z,1004.01
2023-03-15T03:53:10.459Z,1004.10
2023-03-15T03:54:10.449Z,1004.08
2023-03-15T03:55:10.441Z,1004.07
2023-03-15T03:56:10.443Z,1004.06
2023-03-15T03:57:10.404Z,1004.11
2023-03-15T03:58:10.450Z,1004.12
2023-03-15T03:59:10.391Z,1004.12
2023-03-15T04:00:10.371Z,1004.15
2023-03-15T04:01:10.361Z,1004.17
2023-03-15T04:02:10.409Z,1004.22
2023-03-15T04:03:10.347Z,1004.22
2023-03-15T04:04:10.354Z,1004.18
2023-03-15T04:05:10.321Z,1004.21
2023-03-15T04:06:10.316Z,1004.21
2023-03-15T04:07:10.297Z,1004.23
2023-03-15T04:08:10.340Z,1004.28
2023-03-15T04:09:10.276Z,1004.25
2023-03-15T04:10:10.275Z,1004.27
2023-03-15T04:11:10.276Z,1004.32
2023-03-15T04:12:10.311Z,1004.27
2023-03-15T04:13:10.269Z,1004.32
2023-03-15T04:14:10.238Z,1004.35
2023-03-15T04:15:10.222Z,1004.37
2023-03-15T04:16:10.268Z,1004.35
2023-03-15T04:17:10.201Z,1004.36
2023-03-15T04:18:10.183Z,1004.38
2023-03-15T04:19:10.210Z,1004.35
2023-03-15T04:20:10.177Z,1004.42
2023-03-15T04:21:10.167Z,1004.45
2023-03-15T04:22:10.151Z,1004.44
2023-03-15T04:23:10.125Z,1004.45
2023-03-15T04:24:10.118Z,1004.46
2023-03-15T04:25:10.148Z,1004.45
2023-03-15T04:26:10.107Z,1004.49
2023-03-15T04:27:10.105Z,1004.47
2023-03-15T04:28:10.077Z,1004.49
2023-03-15T04:29:10.109Z,1004.49
2023-03-15T04:30:10.079Z,1004.52
2023-03-15T04:31:10.111Z,1004.47
2023-03-15T04:32:10.041Z,1004.51
2023-03-15T04:33:10.037Z,1004.52
2023-03-15T04:34:10.023Z,1004.55
2023-03-15T04:35:10.028Z,1004.57
2023-03-15T04:36:10.045Z,1004.54
2023-03-15T04:37:10.001Z,1004.53
2023-03-15T04:38:09.979Z,1004.55
2023-03-15T04:39:09.969Z,1004.57
2023-03-15T04:40:09.955Z,1004.58
2023-03-15T04:41:09.987Z,1004.58
2023-03-15T04:42:09.939Z,1004.59
2023-03-15T04:43:09.983Z,1004.57
2023-03-15T04:44:09.942Z,1004.55
2023-03-15T04:45:09.914Z,1004.57
2023-03-15T04:46:09.967Z,1004.58
2023-03-15T04:47:09.993Z,1004.56
2023-03-15T04:48:09.901Z,1004.55
2023-03-15T04:49:09.917Z,1004.61
2023-03-15T04:50:09.857Z,1004.62
2023-03-15T04:51:09.900Z,1004.62
2023-03-15T04:52:09.869Z,1004.62
2023-03-15T04:53:09.875Z,1004.65
2023-03-15T04:54:09.811Z,1004.66
2023-03-15T04:55:09.849Z,1004.64
2023-03-15T04:56:09.799Z,1004.72
2023-03-15T04:57:09.795Z,1004.72
2023-03-15T04:58:09.812Z,1004.71
2023-03-15T04:59:09.808Z,1004.75
2023-03-15T05:00:09.752Z,1004.74
2023-03-15T05:01:09.855Z,1004.78
2023-03-15T05:02:09.785Z,1004.79
2023-03-15T05:03:09.724Z,1004.81
2023-03-15T05:04:09.711Z,1004.79
2023-03-15T05:05:09.747Z,1004.84
2023-03-15T05:06:09.690Z,1004.84
2023-03-15T05:07:09.689Z,1004.87
2023-03-15T05:08:09.722Z,1004.88
2023-03-15T05:09:09.691Z,1004.91
2023-03-15T05:10:09.650Z,1004.88
2023-03-15T05:11:09.634Z,1004.93
2023-03-15T05:12:09.636Z,1004.93
2023-03-15T05:13:09.651Z,1004.94
2023-03-15T05:14:09.611Z,1004.98
2023-03-15T05:15:09.769Z,1004.98
2023-03-15T05:16:09.629Z,1005.00
2023-03-15T05:17:09.569Z,1005.03
2023-03-15T05:18:09.590Z,1005.00
2023-03-15T05:19:09.592Z,1005.05
2023-03-15T05:20:09.565Z,1005.08
2023-03-15T05:21:09.538Z,1005.10
2023-03-15T05:22:09.533Z,1005.11
2023-03-15T05:23:09.508Z,1005.14
2023-03-15T05:24:09.512Z,1005.12
2023-03-15T05:25:09.507Z,1005.19
2023-03-15T05:26:09.495Z,1005.13
2023-03-15T05:27:09.461Z,1005.09
2023-03-15T05:28:09.450Z,1005.18
2023-03-15T05:29:09.444Z,1005.24
2023-03-15T05:30:09.458Z,1005.20
2023-03-15T05:31:09.434Z,1005.21
2023-03-15T05:32:09.415Z,1005.18
2023-03-15T05:33:09.414Z,1005.24
2023-03-15T05:34:09.430Z,1005.26
2023-03-15T05:35:09.381Z,1005.28
2023-03-15T05:36:09.381Z,1005.28
2023-03-15T05:37:09.364Z,1005.36
2023-03-15T05:38:09.368Z,1005.37
2023-03-15T05:39:09.338Z,1005.38
2023-03-15T05:40:09.365Z,1005.39
2023-03-15T05:41:09.319Z,1005.43
2023-03-15T05:42:09.306Z,1005.46
2023-03-15T05:43:18.515Z,1005.43
2023-03-15T05:44:09.293Z,1005.44
2023-03-15T05:45:09.274Z,1005.43
2023-03-15T05:46:09.331Z,1005.41
2023-03-15T05:47:09.258Z,1005.46
2023-03-15T05:48:09.247Z,1005.46
2023-03-15T05:49:09.233Z,1005.49
2023-03-15T05:50:09.259Z,1005.52
2023-03-15T05:51:09.247Z,1005.52
2023-03-15T05:52:09.206Z,1005.54
2023-03-15T05:53:09.221Z,1005.56
2023-03-15T05:54:09.182Z,1005.56
2023-03-15T05:55:09.200Z,1005.62
2023-03-15T05:56:09.167Z,1005.62
2023-03-15T05:57:09.190Z,1005.65
2023-03-15T05:58:09.142Z,1005.64
2023-03-15T05:59:09.127Z,1005.73
2023-03-15T06:00:09.114Z,1005.73
2023-03-15T06:01:09.112Z,1005.78
2023-03-15T06:02:09.123Z,1005.77
2023-03-15T06:03:09.189Z,1005.77
2023-03-15T06:04:09.128Z,1005.83
2023-03-15T06:05:09.073Z,1005.83
2023-03-15T06:06:09.064Z,1005.84
2023-03-15T06:07:09.036Z,1005.84
2023-03-15T06:08:10.658Z,1005.88
2023-03-15T06:09:09.024Z,1005.83
2023-03-15T06:10:09.010Z,1005.97
2023-03-15T06:11:09.006Z,1005.92
2023-03-15T06:12:08.985Z,1005.89
2023-03-15T06:13:09.014Z,1005.91
2023-03-15T06:14:08.954Z,1005.93
2023-03-15T06:15:08.971Z,1005.95
2023-03-15T06:16:08.937Z,1005.99
2023-03-15T06:17:08.928Z,1005.98
2023-03-15T06:18:08.928Z,1006.01
2023-03-15T06:19:08.985Z,1006.01
2023-03-15T06:20:08.913Z,1006.10
2023-03-15T06:21:08.885Z,1006.06
2023-03-15T06:22:08.897Z,1006.13
2023-03-15T06:23:08.864Z,1006.16
2023-03-15T06:24:08.891Z,1006.19
2023-03-15T06:25:08.875Z,1006.24
2023-03-15T06:26:08.843Z,1006.26
2023-03-15T06:27:08.824Z,1006.25
2023-03-15T06:28:08.817Z,1006.27
2023-03-15T06:29:08.840Z,1006.42
2023-03-15T06:30:08.787Z,1006.36
2023-03-15T06:31:08.894Z,1006.38
2023-03-15T06:32:08.765Z,1006.39
2023-03-15T06:33:08.761Z,1006.35
2023-03-15T06:34:08.742Z,1006.36
2023-03-15T06:35:08.772Z,1006.40
2023-03-15T06:36:08.800Z,1006.39
2023-03-15T06:37:08.726Z,1006.41
2023-03-15T06:38:10.461Z,1006.43
2023-03-15T06:39:08.692Z,1006.43
2023-03-15T06:40:08.910Z,1006.47
2023-03-15T06:41:08.711Z,1006.51
2023-03-15T06:42:08.665Z,1006.54
2023-03-15T06:43:08.652Z,1006.52
2023-03-15T06:44:08.644Z,1006.51
2023-03-15T06:45:08.686Z,1006.55
2023-03-15T06:46:08.671Z,1006.57
2023-03-15T06:47:08.625Z,1006.65
2023-03-15T06:48:08.594Z,1006.60
2023-03-15T06:49:08.588Z,1006.60
2023-03-15T06:50:08.597Z,1006.62
2023-03-15T06:51:08.589Z,1006.66
2023-03-15T06:52:08.557Z,1006.67
2023-03-15T06:53:08.545Z,1006.62
2023-03-15T06:54:08.554Z,1006.64
2023-03-15T06:55:08.522Z,1006.64
2023-03-15T06:56:08.528Z,1006.67
2023-03-15T06:57:08.523Z,1006.65
2023-03-15T06:58:08.487Z,1006.69
2023-03-15T06:59:08.496Z,1006.66
2023-03-15T07:00:08.472Z,1006.68
2023-03-15T07:01:08.511Z,1006.68
2023-03-15T07:02:08.561Z,1006.74
2023-03-15T07:03:08.459Z,1006.72
2023-03-15T07:04:08.536Z,1006.76
2023-03-15T07:05:08.420Z,1006.78
2023-03-15T07:06:08.416Z,1006.77
2023-03-15T07:07:08.421Z,1006.81
2023-03-15T07:08:08.378Z,1006.80
2023-03-15T07:09:08.366Z,1006.80
2023-03-15T07:10:08.385Z,1006.84
2023-03-15T07:11:08.356Z,1006.85
2023-03-15T07:12:08.369Z,1006.86
2023-03-15T07:13:08.412Z,1006.86
2023-03-15T07:14:08.322Z,1006.90
2023-03-15T07:15:08.322Z,1006.89
2023-03-15T07:16:08.365Z,1006.84
2023-03-15T07:17:08.320Z,1006.81
2023-03-15T07:18:08.298Z,1006.87
2023-03-15T07:19:08.288Z,1006.80
2023-03-15T07:20:08.264Z,1006.88
2023-03-15T07:21:08.239Z,1006.88
2023-03-15T07:22:08.233Z,1006.88
2023-03-15T07:23:08.251Z,1006.87
2023-03-15T07:24:08.225Z,1006.88
2023-03-15T07:25:08.198Z,1006.93
2023-03-15T07:26:08.207Z,1006.84
2023-03-15T07:27:08.179Z,1006.86
2023-03-15T07:28:08.239Z,1006.89
2023-03-15T07:29:08.164Z,1006.91
2023-03-15T07:30:08.160Z,1006.87
2023-03-15T07:31:08.137Z,1006.91
2023-03-15T07:32:08.159Z,1006.91
2023-03-15T07:33:08.133Z,1006.93
2023-03-15T07:34:08.131Z,1006.94
2023-03-15T07:35:08.101Z,1006.96
2023-03-15T07:36:08.090Z,1006.95
2023-03-15T07:37:08.073Z,1006.99
2023-03-15T07:38:08.426Z,1006.97
2023-03-15T07:39:08.074Z,1007.04
2023-03-15T07:40:08.044Z,1006.97
2023-03-15T07:41:08.057Z,1007.02
2023-03-15T07:42:08.035Z,1006.94
2023-03-15T07:43:08.014Z,1007.03
2023-03-15T07:44:07.997Z,1006.96
2023-03-15T07:45:08.031Z,1007.00
2023-03-15T07:46:08.107Z,1007.08
2023-03-15T07:47:08.015Z,1007.11
2023-03-15T07:48:07.953Z,1007.06
2023-03-15T07:49:07.944Z,1007.10
2023-03-15T07:50:07.943Z,1007.14
2023-03-15T07:51:07.949Z,1007.13
2023-03-15T07:52:07.915Z,1007.19
2023-03-15T07:53:07.903Z,1007.12
2023-03-15T07:54:07.883Z,1007.18
2023-03-15T07:55:07.879Z,1007.19
2023-03-15T07:56:07.918Z,1007.23
2023-03-15T07:57:07.861Z,1007.22
2023-03-15T07:58:07.863Z,1007.17
2023-03-15T07:59:07.831Z,1007.20
2023-03-15T08:00:07.821Z,1007.27
2023-03-15T08:01:07.813Z,1007.24
2023-03-15T08:02:07.893Z,1007.24
2023-03-15T08:03:07.848Z,1007.28
2023-03-15T08:04:07.784Z,1007.23
2023-03-15T08:05:07.760Z,1007.28
2023-03-15T08:06:07.764Z,1007.25
2023-03-15T08:07:07.771Z,1007.23
2023-03-15T08:08:07.738Z,1007.27
2023-03-15T08:09:07.721Z,1007.26
2023-03-15T08:10:07.724Z,1007.26
2023-03-15T08:11:07.712Z,1007.34
2023-03-15T08:12:07.741Z,1007.39
2023-03-15T08:13:07.755Z,1007.29
2023-03-15T08:14:07.693Z,1007.31
2023-03-15T08:15:07.689Z,1007.32
2023-03-15T08:16:07.714Z,1007.34
2023-03-15T08:17:07.640Z,1007.32
2023-03-15T08:18:07.647Z,1007.34
2023-03-15T08:19:07.838Z,1007.36
2023-03-15T08:20:07.621Z,1007.35
2023-03-15T08:21:07.597Z,1007.27
2023-03-15T08:22:07.588Z,1007.48
2023-03-15T08:23:07.613Z,1007.47
2023-03-15T08:24:07.606Z,1007.45
2023-03-15T08:25:07.573Z,1007.45
2023-03-15T08:26:07.549Z,1007.45
2023-03-15T08:27:07.538Z,1007.51
2023-03-15T08:28:07.537Z,1007.52
2023-03-15T08:29:07.517Z,1007.49
2023-03-15T08:30:07.570Z,1007.53
2023-03-15T08:31:07.500Z,1007.56
2023-03-15T08:32:07.623Z,1007.52
2023-03-15T08:33:07.601Z,1007.51
2023-03-15T08:34:07.498Z,1007.57
2023-03-15T08:35:07.447Z,1007.53
2023-03-15T08:36:07.510Z,1007.57
2023-03-15T08:37:07.435Z,1007.60
2023-03-15T08:38:07.417Z,1007.64
2023-03-15T08:39:07.432Z,1007.66
2023-03-15T08:40:07.408Z,1007.66
2023-03-15T08:41:07.427Z,1007.68
2023-03-15T08:42:07.374Z,1007.68
2023-03-15T08:43:07.360Z,1007.71
2023-03-15T08:44:07.392Z,1007.74
2023-03-15T08:45:07.384Z,1007.73
2023-03-15T08:46:07.390Z,1007.80
2023-03-15T08:47:07.375Z,1007.79
2023-03-15T08:48:07.311Z,1007.77
2023-03-15T08:49:07.298Z,1007.75
2023-03-15T08:50:07.323Z,1007.77
2023-03-15T08:51:07.296Z,1007.81
2023-03-15T08:52:07.318Z,1007.86
2023-03-15T08:53:07.319Z,1007.83
2023-03-15T08:54:07.244Z,1007.85
2023-03-15T08:55:07.230Z,1007.91
2023-03-15T08:56:07.322Z,1007.91
2023-03-15T08:57:07.289Z,1007.95
2023-03-15T08:58:07.235Z,1007.96
2023-03-15T08:59:07.276Z,1007.97
2023-03-15T09:00:07.185Z,1008.05
2023-03-15T09:01:07.193Z,1008.03
2023-03-15T09:02:07.267Z,1008.08
2023-03-15T09:03:07.149Z,1008.04
2023-03-15T09:04:07.134Z,1008.12
2023-03-15T09:05:07.348Z,1008.11
2023-03-15T09:06:07.127Z,1008.08
2023-03-15T09:07:07.104Z,1008.06
2023-03-15T09:08:07.116Z,1008.10
2023-03-15T09:09:07.083Z,1008.08
2023-03-15T09:10:07.069Z,1008.07
2023-03-15T09:11:07.065Z,1008.16
2023-03-15T09:12:07.042Z,1008.23
2023-03-15T09:13:07.076Z,1008.22
2023-03-15T09:14:07.022Z,1008.19
2023-03-15T09:15:08.010Z,1008.23
2023-03-15T09:16:07.028Z,1008.19
2023-03-15T09:17:07.103Z,1008.22
2023-03-15T09:18:07.041Z,1008.25
2023-03-15T09:19:06.985Z,1008.21
2023-03-15T09:20:06.967Z,1008.26
2023-03-15T09:21:06.960Z,1008.23
2023-03-15T09:22:16.281Z,1008.22
2023-03-15T09:23:07.983Z,1008.25
2023-03-15T09:24:06.919Z,1008.28
2023-03-15T09:25:06.916Z,1008.29
2023-03-15T09:26:06.900Z,1008.26
2023-03-15T09:27:06.892Z,1008.31
2023-03-15T09:28:06.922Z,1008.31
2023-03-15T09:29:06.865Z,1008.33
2023-03-15T09:30:06.865Z,1008.39
2023-03-15T09:31:06.941Z,1008.34
2023-03-15T09:32:06.834Z,1008.33
2023-03-15T09:33:06.964Z,1008.43
2023-03-15T09:34:06.856Z,1008.43
2023-03-15T09:35:06.861Z,1008.44
2023-03-15T09:36:06.868Z,1008.40
2023-03-15T09:37:06.789Z,1008.39
2023-03-15T09:38:06.777Z,1008.47
2023-03-15T09:39:06.790Z,1008.52
2023-03-15T09:40:06.786Z,1008.55
2023-03-15T09:41:06.738Z,1008.55
2023-03-15T09:42:06.771Z,1008.55
2023-03-15T09:43:06.725Z,1008.54
2023-03-15T09:44:06.743Z,1008.55
2023-03-15T09:45:06.704Z,1008.63
2023-03-15T09:46:06.758Z,1008.59
2023-03-15T09:47:06.765Z,1008.61
2023-03-15T09:48:06.665Z,1008.65
2023-03-15T09:49:06.667Z,1008.64
2023-03-15T09:50:06.671Z,1008.68
2023-03-15T09:51:06.641Z,1008.67
2023-03-15T09:52:06.631Z,1008.73
2023-03-15T09:53:06.637Z,1008.75
2023-03-15T09:54:06.613Z,1008.74
2023-03-15T09:55:06.602Z,1008.79
2023-03-15T09:56:06.586Z,1008.75
2023-03-15T09:57:06.568Z,1008.73
2023-03-15T09:58:06.612Z,1008.74
2023-03-15T09:59:06.558Z,1008.77
2023-03-15T10:00:06.544Z,1008.79
2023-03-15T10:01:06.618Z,1008.82
2023-03-15T10:02:06.522Z,1008.83
2023-03-15T10:03:06.534Z,1008.98
2023-03-15T10:04:06.541Z,1008.76
2023-03-15T10:05:06.481Z,1008.89
2023-03-15T10:06:06.553Z,1008.86
2023-03-15T10:07:06.475Z,1008.84
2023-03-15T10:08:06.452Z,1008.84
2023-03-15T10:09:06.483Z,1008.80
2023-03-15T10:10:06.435Z,1008.82
2023-03-15T10:11:06.433Z,1008.87
2023-03-15T10:12:06.459Z,1008.85
2023-03-15T10:13:06.435Z,1008.83
2023-03-15T10:14:06.395Z,1008.88
2023-03-15T10:15:06.383Z,1008.92
2023-03-15T10:16:06.460Z,1008.92
2023-03-15T10:17:06.365Z,1008.89
2023-03-15T10:18:06.406Z,1008.90
2023-03-15T10:19:06.336Z,1008.90
2023-03-15T10:20:06.322Z,1008.86
2023-03-15T10:21:07.652Z,1008.92
2023-03-15T10:22:06.324Z,1009.00
2023-03-15T10:23:06.448Z,1008.96
2023-03-15T10:24:06.280Z,1008.86
2023-03-15T10:25:06.271Z,1009.00
2023-03-15T10:26:06.256Z,1008.95
2023-03-15T10:27:06.274Z,1009.01
2023-03-15T10:28:06.241Z,1009.02
2023-03-15T10:29:06.251Z,1009.07
2023-03-15T10:30:06.213Z,1008.99
2023-03-15T10:31:06.269Z,1009.00
2023-03-15T10:32:06.237Z,1009.00
2023-03-15T10:33:06.196Z,1008.96
2023-03-15T10:34:06.201Z,1008.97
2023-03-15T10:35:06.157Z,1009.01
2023-03-15T10:36:11.391Z,1009.03
2023-03-15T10:37:07.134Z,1008.97
2023-03-15T10:38:06.153Z,1009.01
2023-03-15T10:39:06.114Z,1008.97
2023-03-15T10:40:06.148Z,1009.05
2023-03-15T10:41:06.101Z,1009.01
2023-03-15T10:42:06.084Z,1008.99
2023-03-15T10:43:06.064Z,1008.99
2023-03-15T10:44:06.062Z,1009.01
2023-03-15T10:45:06.045Z,1009.03
2023-03-15T10:46:06.186Z,1009.06
2023-03-15T10:47:21.569Z,1009.06
2023-03-15T10:48:07.013Z,1009.03
2023-03-15T10:49:05.999Z,1009.13
2023-03-15T10:50:06.019Z,1009.05
2023-03-15T10:51:06.017Z,1009.02
2023-03-15T10:52:05.982Z,1009.02
2023-03-15T10:53:05.961Z,1009.00
2023-03-15T10:54:05.964Z,1009.01
2023-03-15T10:55:05.971Z,1009.06
2023-03-15T10:56:05.925Z,1009.00
2023-03-15T10:57:05.956Z,1009.02
2023-03-15T10:58:05.906Z,1009.08
2023-03-15T10:59:12.834Z,1009.02
2023-03-15T11:00:06.924Z,1009.05
2023-03-15T11:01:05.868Z,1009.00
2023-03-15T11:02:05.937Z,1009.02
2023-03-15T11:03:05.943Z,1008.97
2023-03-15T11:04:05.850Z,1009.05
2023-03-15T11:05:05.865Z,1009.10
2023-03-15T11:06:05.850Z,1009.05
2023-03-15T11:07:05.857Z,1009.09
2023-03-15T11:08:05.804Z,1009.08
2023-03-15T11:09:05.779Z,1009.10
2023-03-15T11:10:05.794Z,1009.07
2023-03-15T11:11:05.759Z,1009.14
2023-03-15T11:12:05.800Z,1009.09
2023-03-15T11:13:05.749Z,1009.10
2023-03-15T11:14:05.737Z,1009.12
2023-03-15T11:15:05.721Z,1009.15
2023-03-15T11:16:05.775Z,1009.17
2023-03-15T11:17:05.730Z,1009.16
2023-03-15T11:18:06.755Z,1009.12
2023-03-15T11:19:05.730Z,1009.13
2023-03-15T11:20:05.668Z,1009.18
2023-03-15T11:21:05.664Z,1009.14
2023-03-15T11:22:05.646Z,1009.19
2023-03-15T11:23:05.628Z,1009.11
2023-03-15T11:24:05.631Z,1009.14
2023-03-15T11:25:05.649Z,1009.19
2023-03-15T11:26:05.628Z,1009.14
2023-03-15T11:27:05.588Z,1009.15
2023-03-15T11:28:05.617Z,1009.14
2023-03-15T11:29:05.620Z,1009.21
2023-03-15T11:30:05.562Z,1009.14
2023-03-15T11:31:05.699Z,1009.21
2023-03-15T11:32:05.552Z,1009.15
2023-03-15T11:33:05.570Z,1009.18
2023-03-15T11:34:05.528Z,1009.12
2023-03-15T11:35:05.549Z,1009.10
2023-03-15T11:36:05.599Z,1009.10
2023-03-15T11:37:08.957Z,1009.13
2023-03-15T11:38:14.934Z,1009.16
2023-03-15T11:39:06.467Z,1009.20
2023-03-15T11:40:11.632Z,1009.17
2023-03-15T11:41:06.502Z,1009.17
2023-03-15T11:42:05.454Z,1009.23
2023-03-15T11:43:05.420Z,1009.23
2023-03-15T11:44:05.409Z,1009.26
2023-03-15T11:45:05.439Z,1009.20
2023-03-15T11:46:05.543Z,1009.27
2023-03-15T11:47:05.384Z,1009.20
2023-03-15T11:48:05.372Z,1009.19
2023-03-15T11:49:05.352Z,1009.25
2023-03-15T11:50:05.352Z,1009.31
2023-03-15T11:51:05.369Z,1009.18
2023-03-15T11:52:05.351Z,1009.24
2023-03-15T11:53:05.313Z,1009.21
2023-03-15T11:54:05.308Z,1009.14
2023-03-15T11:55:05.301Z,1009.27
2023-03-15T11:56:05.316Z,1009.21
2023-03-15T11:57:05.277Z,1009.19
2023-03-15T11:58:05.284Z,1009.17
2023-03-15T11:59:05.246Z,1009.15
2023-03-15T12:00:05.277Z,1009.19
2023-03-15T12:01:05.224Z,1009.16
2023-03-15T12:02:05.366Z,1009.18
2023-03-15T12:03:05.237Z,1009.18
2023-03-15T12:04:05.224Z,1009.17
2023-03-15T12:05:17.612Z,1009.16